Time;durP1;ratioP1;P1;durP2;ratioP2;P2;SDS_P1;SDS_P2;PMS_P1;PMS_P2;Temp;Humidity;BMP_temperature;BMP_pressure;BME280_temperature;BME280_humidity;BME280_pressure;Samples;Min_cycle;Max_cycle;Signal;HPM_P1;HPM_P2
2021/08/29 00:01:59;;;;;;;14.77;8.60;;;;;;;17.78;80.00;95879.78;5113736;28;20051;-65
2021/08/29 00:04:25;;;;;;;14.32;8.70;;;;;;;17.73;80.55;95881.13;5113970;28;20384;-65
2021/08/29 00:06:50;;;;;;;11.93;9.40;;;;;;;17.70;80.06;95881.34;5113624;28;20069;-65
2021/08/29 00:09:16;;;;;;;12.18;9.00;;;;;;;17.70;80.50;95873.41;5112934;28;20104;-62
2021/08/29 00:11:42;;;;;;;17.88;9.60;;;;;;;17.71;80.21;95875.94;5113752;28;20019;-64
2021/08/29 00:14:07;;;;;;;10.57;8.55;;;;;;;17.67;80.61;95870.03;5113796;28;20354;-63
2021/08/29 00:16:33;;;;;;;17.10;8.02;;;;;;;17.66;80.51;95860.44;5112933;28;20031;-63
2021/08/29 00:18:58;;;;;;;10.60;7.55;;;;;;;17.68;80.85;95855.03;5099195;28;20024;-63
2021/08/29 00:21:24;;;;;;;12.93;6.90;;;;;;;17.73;80.48;95854.66;5113565;28;20055;-62
2021/08/29 00:23:50;;;;;;;8.80;6.85;;;;;;;17.74;80.03;95843.13;5113551;28;20024;-65
2021/08/29 00:26:15;;;;;;;7.57;6.20;;;;;;;17.74;80.32;95838.69;5113334;28;20052;-65
2021/08/29 00:28:41;;;;;;;10.52;6.40;;;;;;;17.72;80.40;95840.59;5113545;28;20464;-63
2021/08/29 00:31:06;;;;;;;9.80;6.40;;;;;;;17.74;80.36;95835.19;5112580;28;20469;-66
2021/08/29 00:33:32;;;;;;;5.82;5.25;;;;;;;17.68;80.33;95833.88;5113624;28;20076;-63
2021/08/29 00:35:57;;;;;;;7.10;6.05;;;;;;;17.66;80.92;95831.34;5113511;28;20471;-65
2021/08/29 00:38:23;;;;;;;7.38;5.60;;;;;;;17.61;81.12;95828.19;5113451;28;20023;-62
2021/08/29 00:40:52;;;;;;;8.10;5.60;;;;;;;17.55;81.20;95820.78;5113027;28;20023;-66
2021/08/29 00:43:22;;;;;;;8.57;5.97;;;;;;;17.55;81.46;95818.13;5113302;28;20520;-63
2021/08/29 00:45:49;;;;;;;6.80;5.80;;;;;;;17.58;81.45;95822.31;5113372;28;20035;-62
2021/08/29 00:48:14;;;;;;;11.63;6.32;;;;;;;17.58;81.80;95819.69;5113373;28;20331;-63
2021/08/29 00:50:45;;;;;;;11.77;7.13;;;;;;;17.64;81.45;95816.56;5112881;28;20131;-63
2021/08/29 00:53:15;;;;;;;9.93;6.72;;;;;;;17.69;81.32;95822.31;5113145;28;20030;-65
2021/08/29 00:55:41;;;;;;;7.20;5.95;;;;;;;17.72;80.65;95818.59;5113184;28;20437;-62
2021/08/29 00:58:06;;;;;;;15.00;5.75;;;;;;;17.72;79.83;95822.06;5113266;28;20094;-65
2021/08/29 01:00:43;;;;;;;8.15;5.88;;;;;;;17.68;79.93;95818.84;5112898;28;20026;-64
2021/08/29 01:03:29;;;;;;;10.13;6.13;;;;;;;17.61;79.95;95814.16;5115019;28;20457;-62
2021/08/29 01:06:19;;;;;;;14.18;5.75;;;;;;;17.54;79.78;95816.41;5116855;28;20491;-65
2021/08/29 01:08:50;;;;;;;11.60;5.73;;;;;;;17.53;79.31;95812.09;5116998;28;20467;-64
2021/08/29 01:11:19;;;;;;;10.30;6.28;;;;;;;17.50;79.50;95807.06;5116304;28;20264;-62
2021/08/29 01:13:47;;;;;;;8.30;6.28;;;;;;;17.48;80.12;95801.03;5116730;28;20020;-66
2021/08/29 01:16:19;;;;;;;12.52;6.47;;;;;;;17.45;80.10;95803.94;5116594;28;20023;-65
2021/08/29 01:18:49;;;;;;;7.00;6.10;;;;;;;17.40;79.97;95802.47;5116722;28;20023;-62
2021/08/29 01:21:19;;;;;;;6.93;5.75;;;;;;;17.42;79.18;95805.00;5116317;28;20023;-64
2021/08/29 01:23:49;;;;;;;10.40;5.35;;;;;;;17.42;78.90;95797.91;5116779;28;20439;-66
2021/08/29 01:26:53;;;;;;;17.67;6.13;;;;;;;17.33;79.08;95801.28;5116584;28;20532;-64
2021/08/29 01:29:24;;;;;;;6.25;5.15;;;;;;;17.22;79.18;95809.19;5116607;28;20040;-66
2021/08/29 01:31:49;;;;;;;7.88;6.10;;;;;;;17.13;79.20;95808.09;5116128;27;20069;-65
2021/08/29 01:34:18;;;;;;;7.38;5.65;;;;;;;17.14;79.48;95799.19;5116442;28;20023;-66
2021/08/29 01:36:47;;;;;;;9.18;6.28;;;;;;;17.10;78.64;95798.59;5116280;28;20110;-63
2021/08/29 01:39:13;;;;;;;11.05;6.88;;;;;;;17.05;78.59;95798.06;5116295;28;20465;-64
2021/08/29 01:41:42;;;;;;;9.85;6.65;;;;;;;16.96;79.28;95796.13;5116312;28;20032;-67
2021/08/29 01:44:09;;;;;;;15.43;7.28;;;;;;;16.96;79.38;95793.50;5115804;28;20030;-65
2021/08/29 01:46:36;;;;;;;8.23;7.03;;;;;;;16.99;78.65;95787.97;5116364;28;20414;-64
2021/08/29 01:49:04;;;;;;;10.20;6.10;;;;;;;16.96;78.70;95790.84;5116305;28;20016;-63
2021/08/29 01:51:30;;;;;;;14.32;7.40;;;;;;;16.95;78.93;95784.75;5115673;28;20023;-65
2021/08/29 01:53:55;;;;;;;14.63;8.23;;;;;;;16.87;79.43;95790.59;5115823;28;20465;-65
2021/08/29 01:56:21;;;;;;;10.00;7.78;;;;;;;16.89;79.51;95779.91;5116051;28;20031;-64
2021/08/29 01:58:46;;;;;;;13.82;7.85;;;;;;;16.89;79.29;95782.56;5115997;28;20032;-65
2021/08/29 02:01:13;;;;;;;9.57;8.07;;;;;;;16.89;79.22;95785.19;5115783;28;20042;-64
2021/08/29 02:03:43;;;;;;;11.00;7.50;;;;;;;16.87;79.12;95780.03;5116004;28;20012;-64
2021/08/29 02:06:40;;;;;;;12.18;6.63;;;;;;;16.85;79.45;95786.38;5115900;28;20016;-64
2021/08/29 02:09:09;;;;;;;10.32;7.22;;;;;;;16.87;79.61;95782.69;5115928;28;20036;-62
2021/08/29 02:11:39;;;;;;;13.70;7.57;;;;;;;16.88;79.28;95787.00;5115109;28;20031;-64
2021/08/29 02:14:14;;;;;;;7.80;7.00;;;;;;;16.86;79.28;95785.44;5115676;28;20376;-65
2021/08/29 02:16:42;;;;;;;13.35;6.88;;;;;;;16.88;79.71;95792.28;5115471;28;20035;-63
2021/08/29 02:19:09;;;;;;;12.55;6.82;;;;;;;16.87;78.28;95795.03;5115584;28;20023;-64
2021/08/29 02:21:36;;;;;;;11.93;6.88;;;;;;;16.82;78.72;95790.09;5115099;28;20016;-62
2021/08/29 02:24:03;;;;;;;9.68;6.30;;;;;;;16.82;78.75;95792.72;5115525;28;20038;-66
2021/08/29 02:26:29;;;;;;;7.15;6.22;;;;;;;16.79;78.42;95791.16;5115298;28;20401;-62
2021/08/29 02:28:55;;;;;;;9.60;6.22;;;;;;;16.81;78.37;95801.63;5115481;28;20028;-64
2021/08/29 02:31:21;;;;;;;10.80;6.47;;;;;;;16.79;78.15;95800.88;5115393;28;20039;-66
2021/08/29 02:33:48;;;;;;;17.17;7.63;;;;;;;16.80;78.59;95799.94;5115235;28;20030;-64
2021/08/29 02:36:16;;;;;;;16.23;6.50;;;;;;;16.79;78.56;95804.38;5115254;28;20446;-62
2021/08/29 02:38:49;;;;;;;14.23;6.70;;;;;;;16.79;78.97;95801.72;5115154;28;20016;-65
2021/08/29 02:41:16;;;;;;;9.82;7.00;;;;;;;16.82;79.47;95797.19;5115312;28;20032;-64
2021/08/29 02:43:44;;;;;;;8.25;6.85;;;;;;;16.84;80.29;95800.53;5114760;28;20020;-66
2021/08/29 02:46:10;;;;;;;14.52;7.70;;;;;;;16.87;80.69;95792.38;5115185;28;20429;-66
2021/08/29 02:48:36;;;;;;;12.38;7.88;;;;;;;16.86;80.98;95791.53;5115156;28;20027;-65
2021/08/29 02:51:02;;;;;;;13.65;8.48;;;;;;;16.95;81.52;95794.44;5115101;28;20012;-63
2021/08/29 02:53:28;;;;;;;16.52;7.70;;;;;;;16.96;80.75;95789.06;5114002;28;20098;-64
2021/08/29 02:55:59;;;;;;;14.05;7.13;;;;;;;17.01;79.94;95786.88;5114593;28;20028;-63
2021/08/29 02:58:26;;;;;;;8.65;7.53;;;;;;;17.00;79.60;95781.72;5114813;28;20030;-62
2021/08/29 03:00:52;;;;;;;11.07;6.50;;;;;;;16.99;79.46;95785.34;5114759;28;20089;-62
2021/08/29 03:03:18;;;;;;;12.00;6.18;;;;;;;16.95;79.50;95775.97;5114599;28;20052;-64
2021/08/29 03:05:43;;;;;;;12.68;8.00;;;;;;;16.92;79.70;95777.03;5114922;27;20028;-66
2021/08/29 03:08:09;;;;;;;18.08;7.28;;;;;;;16.93;79.66;95778.72;5114601;28;20016;-65
2021/08/29 03:10:35;;;;;;;13.60;7.15;;;;;;;16.93;79.70;95779.56;5114702;28;20099;-62
2021/08/29 03:13:02;;;;;;;11.98;7.82;;;;;;;16.94;79.26;95783.03;5114259;28;20047;-63
2021/08/29 03:15:30;;;;;;;18.92;8.63;;;;;;;16.92;79.47;95777.88;5114255;28;20541;-63
2021/08/29 03:17:56;;;;;;;11.18;6.90;;;;;;;16.91;78.84;95781.47;5114390;28;20475;-64
2021/08/29 03:20:23;;;;;;;12.20;7.50;;;;;;;16.86;78.88;95775.69;5114491;28;20024;-63
2021/08/29 03:22:50;;;;;;;13.18;7.28;;;;;;;16.91;79.28;95786.75;5114226;28;20073;-65
2021/08/29 03:25:16;;;;;;;10.95;7.38;;;;;;;16.91;79.13;95778.84;5113308;28;20027;-66
2021/08/29 03:27:41;;;;;;;13.90;7.72;;;;;;;16.87;79.35;95777.38;5114241;28;20549;-62
2021/08/29 03:30:08;;;;;;;17.60;8.48;;;;;;;16.89;79.98;95778.09;5114127;28;20027;-66
2021/08/29 03:32:33;;;;;;;14.88;7.95;;;;;;;16.91;79.98;95781.47;5114219;28;20020;-62
2021/08/29 03:35:01;;;;;;;18.40;9.68;;;;;;;16.91;80.23;95788.53;5113701;28;20068;-65
2021/08/29 03:37:28;;;;;;;14.25;7.80;;;;;;;16.92;80.46;95780.50;5113978;28;20538;-64
2021/08/29 03:39:54;;;;;;;11.25;8.98;;;;;;;16.89;80.72;95786.03;5114363;28;20491;-65
2021/08/29 03:42:20;;;;;;;16.30;10.60;;;;;;;16.89;82.74;95780.75;5114142;28;20028;-66
2021/08/29 03:44:47;;;;;;;17.83;11.07;;;;;;;16.89;83.70;95782.56;5113684;28;20426;-63
2021/08/29 03:47:13;;;;;;;14.88;11.02;;;;;;;16.98;83.85;95775.72;5114038;28;20028;-64
2021/08/29 03:49:40;;;;;;;14.23;9.57;;;;;;;17.07;83.31;95785.63;5113909;28;20019;-65
2021/08/29 03:52:06;;;;;;;14.75;10.32;;;;;;;17.11;83.81;95781.78;5113960;28;20026;-63
2021/08/29 03:54:32;;;;;;;19.85;11.57;;;;;;;17.15;83.71;95785.03;5112837;28;20035;-62
2021/08/29 03:56:59;;;;;;;23.58;13.20;;;;;;;17.15;84.36;95780.59;5113797;28;20023;-65
2021/08/29 03:59:25;;;;;;;24.83;16.58;;;;;;;17.25;85.93;95788.63;5113821;28;20026;-64
2021/08/29 04:01:50;;;;;;;20.95;12.15;;;;;;;17.39;85.33;95794.66;5113959;28;20114;-65
2021/08/29 04:04:16;;;;;;;23.75;14.70;;;;;;;17.47;85.43;95791.44;5113560;28;20035;-63
2021/08/29 04:06:43;;;;;;;20.63;11.15;;;;;;;17.55;84.79;95797.78;5113680;28;20024;-65
2021/08/29 04:09:09;;;;;;;16.70;11.77;;;;;;;17.63;84.21;95802.50;5113678;28;20046;-65
2021/08/29 04:11:35;;;;;;;20.30;11.00;;;;;;;17.71;83.78;95801.91;5113720;28;20020;-64
2021/08/29 04:14:01;;;;;;;17.88;11.40;;;;;;;17.78;83.77;95803.09;5113055;28;20069;-63
2021/08/29 04:16:27;;;;;;;18.67;13.52;;;;;;;17.86;83.68;95799.84;5113568;28;20493;-63
2021/08/29 04:18:53;;;;;;;23.58;14.75;;;;;;;17.93;84.07;95798.38;5113495;28;20499;-62
2021/08/29 04:21:24;;;;;;;30.92;15.38;;;;;;;18.06;84.47;95800.88;5113526;28;20462;-65
2021/08/29 04:23:50;;;;;;;15.90;11.88;;;;;;;18.13;84.12;95795.97;5113194;28;20046;-61
2021/08/29 04:26:16;;;;;;;15.30;11.57;;;;;;;18.17;83.22;95793.91;5113272;28;20054;-63
2021/08/29 04:28:42;;;;;;;19.38;12.48;;;;;;;18.22;83.02;95791.75;5113147;28;20028;-63
2021/08/29 04:31:32;;;;;;;15.32;11.95;;;;;;;18.34;83.24;95792.56;5113595;28;20023;-63
2021/08/29 04:34:05;;;;;;;16.83;11.38;;;;;;;18.43;83.22;95793.63;5112815;28;20173;-66
2021/08/29 04:36:32;;;;;;;16.98;11.05;;;;;;;18.52;83.23;95794.66;5113517;28;20381;-66
2021/08/29 04:39:03;;;;;;;15.07;11.18;;;;;;;18.64;83.30;95796.31;5116655;28;20016;-66
2021/08/29 04:41:29;;;;;;;18.10;11.65;;;;;;;18.72;82.80;95795.66;5117528;28;20038;-61
2021/08/29 04:43:54;;;;;;;13.57;9.65;;;;;;;18.85;82.09;95795.50;5117597;28;20091;-63
2021/08/29 04:46:20;;;;;;;19.92;10.40;;;;;;;18.94;82.15;95804.47;5117032;28;20044;-64
2021/08/29 04:48:45;;;;;;;14.85;10.75;;;;;;;19.00;82.13;95808.41;5117395;28;20023;-62
2021/08/29 04:51:11;;;;;;;16.05;10.75;;;;;;;19.15;82.03;95803.66;5117324;28;20476;-63
2021/08/29 04:53:37;;;;;;;13.20;9.45;;;;;;;19.34;82.39;95808.22;5117356;28;20020;-63
2021/08/29 04:56:02;;;;;;;11.65;9.63;;;;;;;19.53;81.27;95801.34;5116902;28;20035;-62
2021/08/29 04:58:28;;;;;;;13.70;9.48;;;;;;;19.67;80.96;95798.34;5116799;28;20089;-63
2021/08/29 05:00:53;;;;;;;18.45;10.80;;;;;;;19.81;80.74;95796.31;5117151;28;20020;-65
2021/08/29 05:03:19;;;;;;;13.20;9.75;;;;;;;19.94;80.56;95798.72;5117187;28;20055;-65
2021/08/29 05:05:44;;;;;;;17.02;9.30;;;;;;;20.02;80.30;95796.25;5116712;28;20028;-64
2021/08/29 05:08:10;;;;;;;13.73;11.13;;;;;;;20.15;80.13;95797.81;5117041;28;20099;-63
2021/08/29 05:10:35;;;;;;;14.60;10.32;;;;;;;20.27;79.89;95801.19;5117012;28;20027;-63
2021/08/29 05:13:01;;;;;;;14.60;9.52;;;;;;;20.41;78.59;95792.81;5116930;27;20422;-64
2021/08/29 05:15:27;;;;;;;12.68;9.48;;;;;;;20.51;78.25;95792.00;5116443;28;20027;-63
2021/08/29 05:17:52;;;;;;;16.08;9.60;;;;;;;20.63;78.91;95790.91;5116965;28;20032;-61
2021/08/29 05:20:17;;;;;;;12.25;9.27;;;;;;;20.81;78.71;95784.88;5116828;28;20019;-62
2021/08/29 05:22:43;;;;;;;15.10;8.20;;;;;;;21.21;79.31;95789.19;5116110;28;20461;-63
2021/08/29 05:25:09;;;;;;;11.68;7.15;;;;;;;21.78;76.73;95787.50;5116082;28;20024;-64
2021/08/29 05:27:35;;;;;;;13.82;6.38;;;;;;;22.30;74.31;95782.56;5116587;28;20051;-62
2021/08/29 05:30:00;;;;;;;9.88;6.68;;;;;;;22.74;73.61;95789.84;5116239;28;20532;-63
2021/08/29 05:32:26;;;;;;;12.52;6.18;;;;;;;23.27;71.65;95789.09;5116640;28;20020;-63
2021/08/29 05:34:51;;;;;;;10.05;6.47;;;;;;;23.80;71.03;95797.06;5116165;28;20585;-62
2021/08/29 05:39:16;;;;;;;10.52;6.30;;;;;;;24.65;66.83;95791.88;5111131;27;20385;-62
2021/08/29 05:41:42;;;;;;;10.52;6.75;;;;;;;24.67;65.96;95793.38;5107260;28;20366;-63
2021/08/29 05:44:07;;;;;;;9.38;6.88;;;;;;;24.69;67.45;95787.84;5110383;28;20028;-62
2021/08/29 05:46:33;;;;;;;8.02;7.10;;;;;;;24.72;66.80;95793.69;5110575;28;20020;-62
2021/08/29 05:48:59;;;;;;;12.18;6.60;;;;;;;24.47;66.44;95790.19;5110528;28;20396;-65
2021/08/29 05:51:24;;;;;;;12.63;8.48;;;;;;;24.01;66.11;95795.81;5109047;28;20030;-69
2021/08/29 05:53:50;;;;;;;15.95;8.98;;;;;;;23.69;67.30;95796.34;5109678;28;20028;-67
2021/08/29 05:56:15;;;;;;;13.13;8.25;;;;;;;23.66;67.67;95796.69;5110602;28;20346;-67
2021/08/29 05:58:41;;;;;;;11.90;8.57;;;;;;;23.50;67.57;95793.94;5110790;28;20024;-63
2021/08/29 06:01:11;;;;;;;13.35;7.90;;;;;;;23.41;68.47;95796.53;5110602;28;20020;-64
2021/08/29 06:03:37;;;;;;;14.70;9.00;;;;;;;23.19;68.66;95804.06;5110652;28;20028;-62
2021/08/29 06:06:03;;;;;;;11.57;9.02;;;;;;;23.06;69.33;95795.63;5109933;28;20035;-67
2021/08/29 06:08:29;;;;;;;10.32;9.30;;;;;;;23.03;69.43;95804.75;5110575;28;20028;-64
2021/08/29 06:10:55;;;;;;;13.60;10.27;;;;;;;23.05;70.93;95799.25;5110479;28;20016;-63
2021/08/29 06:13:21;;;;;;;21.90;9.82;;;;;;;23.10;70.48;95794.31;5110553;28;20024;-63
2021/08/29 06:15:46;;;;;;;16.85;10.63;;;;;;;23.08;70.93;95796.28;5109546;28;20024;-63
2021/08/29 06:18:12;;;;;;;15.75;11.75;;;;;;;23.09;70.59;95793.47;5110307;28;20064;-65
2021/08/29 06:20:37;;;;;;;16.08;10.93;;;;;;;23.12;71.07;95795.00;5110200;28;20028;-65
2021/08/29 06:23:03;;;;;;;75.90;30.23;;;;;;;23.10;69.66;95792.50;5110334;28;20024;-60
2021/08/29 06:25:29;;;;;;;43.63;19.83;;;;;;;23.13;69.72;95790.50;5109868;28;20024;-67
2021/08/29 06:27:54;;;;;;;15.85;11.15;;;;;;;23.16;71.26;95792.84;5109784;28;20106;-62
2021/08/29 06:30:20;;;;;;;48.92;21.48;;;;;;;23.13;70.63;95786.00;5110089;28;20435;-61
2021/08/29 06:32:45;;;;;;;48.40;18.13;;;;;;;23.13;70.57;95799.34;5110119;28;20458;-63
2021/08/29 06:35:11;;;;;;;32.78;17.17;;;;;;;23.15;70.96;95801.84;5110040;28;20025;-63
2021/08/29 06:37:37;;;;;;;19.75;10.55;;;;;;;23.18;70.59;95796.19;5109289;28;20079;-64
2021/08/29 06:40:03;;;;;;;22.27;11.82;;;;;;;23.21;70.42;95796.72;5109818;28;20016;-62
2021/08/29 06:42:28;;;;;;;13.57;9.68;;;;;;;23.30;70.42;95792.28;5109938;28;20023;-66
2021/08/29 06:44:54;;;;;;;14.65;10.13;;;;;;;23.44;70.57;95790.91;5109915;28;20027;-65
2021/08/29 06:47:19;;;;;;;11.07;9.60;;;;;;;23.66;70.37;95786.00;5109524;28;20043;-64
2021/08/29 06:49:45;;;;;;;12.88;9.27;;;;;;;24.06;69.49;95788.19;5100990;28;20032;-62
2021/08/29 06:52:10;;;;;;;12.57;9.82;;;;;;;24.51;67.72;95786.16;5077858;28;20027;-63
2021/08/29 06:54:36;;;;;;;17.13;8.68;;;;;;;25.20;67.23;95785.03;5096208;28;20111;-62
2021/08/29 06:57:02;;;;;;;10.50;8.23;;;;;;;26.04;65.09;95784.84;5095802;28;20370;-61
2021/08/29 06:59:27;;;;;;;16.63;9.45;;;;;;;26.71;60.74;95782.63;5096055;28;20347;-65
2021/08/29 07:01:53;;;;;;;15.40;10.82;;;;;;;26.75;58.39;95783.94;5094567;28;20038;-61
2021/08/29 07:04:18;;;;;;;20.90;11.30;;;;;;;26.42;60.16;95773.44;5095761;28;20122;-63
2021/08/29 07:06:44;;;;;;;15.02;11.68;;;;;;;26.06;61.36;95777.44;5095498;28;20029;-63
2021/08/29 07:09:10;;;;;;;15.73;11.27;;;;;;;26.05;61.49;95776.63;5095506;28;20023;-61
2021/08/29 07:11:35;;;;;;;20.85;12.52;;;;;;;26.35;61.72;95773.31;5077679;28;20031;-65
2021/08/29 07:14:01;;;;;;;16.10;11.55;;;;;;;26.31;59.86;95777.38;5095451;28;20052;-63
2021/08/29 07:16:26;;;;;;;18.85;12.18;;;;;;;26.05;60.82;95775.78;5095310;28;20034;-65
2021/08/29 07:18:53;;;;;;;28.60;13.02;;;;;;;25.66;60.83;95774.75;5095236;28;20024;-63
2021/08/29 07:21:18;;;;;;;16.08;13.30;;;;;;;25.42;62.42;95777.31;5095084;28;20043;-60
2021/08/29 07:23:44;;;;;;;19.85;14.27;;;;;;;25.29;63.37;95779.69;5095461;28;20020;-65
2021/08/29 07:26:13;;;;;;;22.10;14.63;;;;;;;25.00;62.80;95776.53;5095434;28;20028;-64
2021/08/29 07:28:43;;;;;;;22.33;14.10;;;;;;;24.72;65.10;95776.84;5095179;28;20038;-62
2021/08/29 07:31:10;;;;;;;28.90;16.33;;;;;;;24.86;64.19;95778.00;5095093;28;20365;-64
2021/08/29 07:33:36;;;;;;;19.65;14.40;;;;;;;24.72;64.08;95774.97;5095419;28;20028;-64
2021/08/29 07:36:02;;;;;;;19.52;13.48;;;;;;;24.94;62.11;95780.72;5095214;28;20031;-63
2021/08/29 07:38:27;;;;;;;22.52;14.52;;;;;;;25.31;63.86;95773.16;5094657;28;20052;-67
2021/08/29 07:40:53;;;;;;;20.60;13.88;;;;;;;25.77;60.11;95776.25;5095367;28;20016;-65
2021/08/29 07:43:18;;;;;;;18.70;12.85;;;;;;;26.09;59.42;95753.84;5095222;28;20020;-62
2021/08/29 07:45:45;;;;;;;17.88;13.30;;;;;;;26.16;60.27;95758.50;5094805;28;20028;-62
2021/08/29 07:48:10;;;;;;;23.15;13.02;;;;;;;25.86;59.49;95761.81;5094824;28;20366;-64
2021/08/29 07:50:36;;;;;;;15.77;11.68;;;;;;;26.14;60.41;95757.81;5094180;28;20031;-59
2021/08/29 07:53:02;;;;;;;17.08;12.32;;;;;;;26.20;59.47;95757.97;5094808;28;20024;-61
2021/08/29 07:55:27;;;;;;;21.45;13.70;;;;;;;25.96;60.92;95761.59;5094524;28;20111;-59
2021/08/29 07:57:53;;;;;;;18.27;12.63;;;;;;;25.92;59.79;95761.13;5094098;28;20077;-62
2021/08/29 08:00:19;;;;;;;18.70;12.88;;;;;;;25.99;59.88;95755.91;5094125;28;20028;-62
2021/08/29 08:02:45;;;;;;;16.75;13.10;;;;;;;26.28;59.61;95753.56;5093264;28;20020;-61
2021/08/29 08:05:10;;;;;;;12.90;11.07;;;;;;;26.18;57.57;95759.13;5093646;28;20055;-62
2021/08/29 08:07:36;;;;;;;15.10;11.57;;;;;;;25.72;58.19;95755.34;5094706;28;20020;-62
2021/08/29 08:10:03;;;;;;;17.13;11.45;;;;;;;25.46;57.97;95754.53;5094609;28;20028;-64
2021/08/29 08:12:29;;;;;;;13.32;11.15;;;;;;;25.20;58.55;95750.25;5094101;28;20054;-62
2021/08/29 08:14:54;;;;;;;14.50;12.02;;;;;;;25.65;60.50;95754.38;5088708;28;20016;-58
2021/08/29 08:17:20;;;;;;;16.10;10.23;;;;;;;26.11;57.17;95750.97;5093939;28;20051;-59
2021/08/29 08:19:45;;;;;;;12.27;10.30;;;;;;;26.43;56.84;95748.31;5094486;28;20103;-60
2021/08/29 08:22:11;;;;;;;13.50;10.18;;;;;;;26.59;54.12;95744.69;5094247;28;20028;-59
2021/08/29 08:24:37;;;;;;;12.48;9.65;;;;;;;26.69;54.06;95749.78;5094264;28;20024;-58
2021/08/29 08:27:02;;;;;;;13.23;9.40;;;;;;;26.76;54.00;95750.78;5093898;28;20507;-60
2021/08/29 08:29:28;;;;;;;15.05;10.68;;;;;;;26.89;56.32;95752.84;5094321;28;20035;-59
2021/08/29 08:31:54;;;;;;;12.60;9.88;;;;;;;26.99;54.38;95747.22;5094218;28;20024;-59
2021/08/29 08:34:19;;;;;;;13.73;9.90;;;;;;;26.97;53.73;95754.63;5094093;28;20043;-59
2021/08/29 08:36:45;;;;;;;16.83;10.55;;;;;;;27.15;51.59;95754.28;5093722;28;20515;-59
2021/08/29 08:39:11;;;;;;;14.63;9.45;;;;;;;27.46;50.55;95744.44;5093965;28;20131;-59
2021/08/29 08:41:36;;;;;;;10.38;8.30;;;;;;;27.48;50.63;95737.84;5094292;28;20103;-59
2021/08/29 08:44:02;;;;;;;11.70;8.35;;;;;;;27.56;53.01;95736.09;5094112;28;20028;-59
2021/08/29 08:46:28;;;;;;;15.75;8.93;;;;;;;27.48;51.30;95742.41;5093634;28;21383;-60
2021/08/29 08:48:56;;;;;;;17.45;10.15;;;;;;;27.30;50.84;95738.22;5096765;28;20028;-60
2021/08/29 08:51:26;;;;;;;19.40;10.38;;;;;;;27.62;50.66;95732.69;5114338;28;20536;-60
2021/08/29 08:53:53;;;;;;;16.60;10.27;;;;;;;27.91;51.11;95730.19;5114085;28;20365;-60
2021/08/29 08:56:20;;;;;;;13.68;9.80;;;;;;;28.14;47.87;95730.03;5106747;28;20591;-59
2021/08/29 08:58:47;;;;;;;20.02;11.80;;;;;;;28.10;48.47;95726.06;5093498;28;20055;-60
2021/08/29 09:01:14;;;;;;;15.85;10.98;;;;;;;28.17;48.34;95724.28;5093582;28;20028;-60
2021/08/29 09:03:41;;;;;;;16.80;10.48;;;;;;;28.48;48.37;95728.56;5093620;28;20115;-58
2021/08/29 09:06:07;;;;;;;13.60;10.43;;;;;;;28.93;49.92;95726.69;5075213;28;20534;-59
2021/08/29 09:08:37;;;;;;;14.35;9.43;;;;;;;29.19;45.61;95725.28;5093573;28;20020;-59
2021/08/29 09:11:04;;;;;;;15.13;9.80;;;;;;;29.26;45.84;95723.47;5093678;28;20103;-59
2021/08/29 09:13:54;;;;;;;20.48;10.13;;;;;;;29.08;45.52;95729.31;5093518;28;20032;-60
2021/08/29 09:16:25;;;;;;;20.10;11.68;;;;;;;28.83;46.38;95718.97;5078687;28;20097;-60
2021/08/29 09:18:59;;;;;;;22.92;10.82;;;;;;;28.76;45.53;95717.03;5092584;28;20077;-60
2021/08/29 09:21:28;;;;;;;24.08;10.95;;;;;;;28.86;48.49;95719.41;5092968;28;20020;-59
2021/08/29 09:23:56;;;;;;;20.25;11.02;;;;;;;29.13;46.21;95708.88;5093329;28;20069;-59
2021/08/29 09:26:23;;;;;;;13.05;11.13;;;;;;;29.16;45.27;95710.31;5093382;28;20420;-59
2021/08/29 09:28:50;;;;;;;15.95;11.25;;;;;;;29.33;45.57;95710.03;5093284;28;20477;-59
2021/08/29 09:31:18;;;;;;;18.05;11.32;;;;;;;29.39;44.73;95712.78;5092952;28;20427;-59
2021/08/29 09:33:58;;;;;;;112.80;74.82;;;;;;;29.58;46.82;95718.50;5093154;28;20035;-59
2021/08/29 09:36:30;;;;;;;18.00;11.82;;;;;;;29.46;44.32;95710.09;5093236;28;20419;-59
2021/08/29 09:39:12;;;;;;;32.90;27.67;;;;;;;29.15;46.25;95708.66;5092495;28;20105;-60
2021/08/29 09:41:45;;;;;;;15.10;10.77;;;;;;;29.32;44.46;95708.38;5093464;28;20042;-60
2021/08/29 09:44:13;;;;;;;17.90;11.43;;;;;;;29.47;45.86;95706.38;5076290;28;20053;-60
2021/08/29 09:47:03;;;;;;;21.27;11.43;;;;;;;29.71;43.95;95704.25;5093171;28;20055;-59
2021/08/29 09:49:31;;;;;;;15.88;10.95;;;;;;;29.72;44.31;95697.84;5092734;28;20534;-59
2021/08/29 09:52:00;;;;;;;18.52;11.35;;;;;;;29.64;45.68;95704.22;5092986;28;20488;-60
2021/08/29 09:54:41;;;;;;;17.95;11.40;;;;;;;29.92;46.25;95710.56;5093044;28;20016;-59
2021/08/29 09:57:09;;;;;;;15.50;9.50;;;;;;;30.08;42.50;95698.59;5093056;28;20056;-59
2021/08/29 09:59:49;;;;;;;14.07;10.63;;;;;;;30.07;44.90;95701.50;5092635;28;20119;-59
2021/08/29 10:02:22;;;;;;;13.35;9.95;;;;;;;30.16;45.06;95703.00;5093137;28;20073;-60
2021/08/29 10:04:48;;;;;;;14.02;9.85;;;;;;;30.20;41.82;95693.47;5090877;28;20496;-59
2021/08/29 10:07:16;;;;;;;14.73;9.80;;;;;;;30.24;42.82;95702.81;5092918;28;20032;-59
2021/08/29 10:09:43;;;;;;;10.93;9.80;;;;;;;30.36;43.72;95692.25;5092950;28;20024;-59
2021/08/29 10:12:10;;;;;;;14.35;9.20;;;;;;;30.56;40.14;95696.88;5092877;28;20536;-60
2021/08/29 10:14:38;;;;;;;14.80;10.18;;;;;;;30.31;41.75;95702.00;5092235;28;20415;-60
2021/08/29 10:17:04;;;;;;;12.90;9.45;;;;;;;30.26;43.38;95689.97;5092957;28;20027;-59
2021/08/29 10:19:31;;;;;;;12.00;9.30;;;;;;;30.38;44.07;95690.19;5092919;28;20031;-60
2021/08/29 10:21:57;;;;;;;16.10;10.52;;;;;;;30.50;42.14;95689.59;5092748;28;20048;-60
2021/08/29 10:24:27;;;;;;;21.05;10.43;;;;;;;30.28;43.01;95684.38;5093531;28;20028;-59
2021/08/29 10:26:55;;;;;;;16.65;9.27;;;;;;;30.19;41.93;95677.50;5095730;28;20024;-60
2021/08/29 10:29:30;;;;;;;17.77;9.77;;;;;;;29.79;42.39;95683.59;5095483;28;20032;-60
2021/08/29 10:32:13;;;;;;;13.38;9.80;;;;;;;29.43;43.87;95683.56;5095497;28;20500;-60
2021/08/29 10:34:39;;;;;;;15.20;9.80;;;;;;;29.29;42.67;95682.69;5095099;28;20458;-59
2021/08/29 10:37:05;;;;;;;14.02;9.90;;;;;;;29.40;44.51;95678.59;5095041;28;20055;-60
2021/08/29 10:39:33;;;;;;;15.68;10.05;;;;;;;29.41;44.96;95679.44;5095319;28;20052;-60
2021/08/29 10:41:59;;;;;;;20.25;9.88;;;;;;;29.19;44.10;95679.50;5095737;28;20027;-60
2021/08/29 10:44:25;;;;;;;14.45;9.40;;;;;;;29.03;44.50;95683.31;5096333;28;20016;-60
2021/08/29 10:46:51;;;;;;;14.15;10.07;;;;;;;29.06;43.40;95669.47;5095620;28;20077;-59
2021/08/29 10:49:19;;;;;;;13.73;9.98;;;;;;;29.16;45.08;95671.84;5096258;28;20032;-60
2021/08/29 10:51:46;;;;;;;17.42;10.82;;;;;;;29.35;42.52;95673.78;5096245;28;20016;-59
2021/08/29 10:54:14;;;;;;;15.88;10.35;;;;;;;29.46;42.53;95674.25;5096244;28;20032;-59
2021/08/29 10:56:41;;;;;;;15.52;10.40;;;;;;;29.70;43.77;95674.81;5096100;28;20036;-60
2021/08/29 10:59:07;;;;;;;16.25;10.35;;;;;;;29.65;44.20;95667.38;5095354;28;20497;-60
2021/08/29 11:01:43;;;;;;;17.80;9.85;;;;;;;29.30;43.29;95670.03;5095898;28;20028;-60
2021/08/29 11:04:34;;;;;;;14.43;10.48;;;;;;;29.33;43.62;95661.56;5096048;28;20104;-59
2021/08/29 11:07:08;;;;;;;12.55;10.65;;;;;;;29.43;43.14;95670.09;5090152;28;20044;-59
2021/08/29 11:09:36;;;;;;;15.32;10.60;;;;;;;29.56;44.02;95664.00;5095812;28;20112;-59
2021/08/29 11:12:04;;;;;;;31.63;16.63;;;;;;;29.63;43.91;95666.72;5095346;28;20073;-59
2021/08/29 11:14:51;;;;;;;14.80;10.85;;;;;;;29.91;44.95;95656.88;5095863;28;20662;-60
2021/08/29 11:17:18;;;;;;;17.67;10.00;;;;;;;30.00;44.02;95655.66;5095105;28;20032;-60
2021/08/29 11:19:46;;;;;;;14.38;10.40;;;;;;;29.82;42.06;95658.91;5095495;28;20032;-59
2021/08/29 11:22:16;;;;;;;15.73;10.95;;;;;;;29.75;42.61;95658.88;5095370;28;20058;-59
2021/08/29 11:24:48;;;;;;;13.45;10.93;;;;;;;29.69;44.41;95657.00;5095438;28;20024;-60
2021/08/29 11:27:32;;;;;;;21.40;10.30;;;;;;;29.49;44.33;95657.69;5095523;28;20032;-59